Latest Weather Observations for Williamtown

IDN60801

Issued at 5:32 pm EST Friday 28 August 2015 (issued every 30 minutes, with the page automatically refreshed every 10 minutes)

About weather observations | Map of weather stations | Latest weather observations for NSW | Other Formats
Station Details ID: 061078 Name: WILLIAMTOWN RAAF Lat: -32.79 Lon: 151.84 Height: 9.0 m
Data from the previous 72 hours. | See also: Recent months at Williamtown
Date/Time
EST
Temp
°C
App
Temp
°C
Dew
Point
Rel
Hum
%
Delta-T
°C
Wind Press
QNH
hPa
Press
MSL
hPa
Rain
since 9 am
mm
Dir
 
Spd
km/h
Gust
km/h
Spd
kts
Gust
kts
28/05:30pm 16.4 12.0 4.7 46 5.5 WNW 17 20 9 11 1020.6 1020.6 0.0
28/05:00pm 17.8 13.8 4.8 42 6.2 WNW 15 19 8 10 1020.4 1020.4 0.0
28/04:30pm 17.4 13.8 5.0 44 5.9 WNW 13 19 7 10 1020.2 1020.2 0.0
28/04:00pm 18.6 14.1 4.3 38 6.8 W 17 22 9 12 1019.8 1019.8 0.0
28/03:30pm 18.5 12.9 3.5 37 7.0 W 22 28 12 15 1019.6 1019.6 0.0
28/03:00pm 19.0 13.4 3.7 36 7.2 W 22 37 12 20 1019.3 1019.3 0.0
28/02:30pm 19.8 14.5 5.0 37 7.2 WNW 22 32 12 17 1019.2 1019.2 0.0
28/02:00pm 19.1 12.6 4.5 38 7.0 WNW 28 39 15 21 1019.3 1019.3 0.0
28/01:30pm 18.5 11.6 4.4 39 6.7 WNW 30 41 16 22 1019.4 1019.4 0.0
28/01:00pm 17.9 11.4 4.9 42 6.2 WNW 28 44 15 24 1019.7 1019.7 0.0
28/12:30pm 17.9 11.0 4.7 41 6.3 WNW 30 46 16 25 1020.3 1020.3 0.0
28/12:00pm 18.4 11.2 4.8 40 6.5 WNW 32 43 17 23 1020.5 1020.5 0.0
28/11:30am 17.8 10.1 5.3 43 6.0 WNW 35 46 19 25 1020.7 1020.7 0.0
28/11:00am 16.9 9.0 4.6 44 5.8 WNW 35 44 19 24 1020.9 1020.9 0.0
28/10:30am 16.4 8.8 4.1 44 5.7 WNW 33 48 18 26 1021.2 1021.2 0.0
28/10:00am 15.8 7.2 4.7 47 5.2 WNW 39 50 21 27 1021.0 1021.0 0.0
28/09:35am 15.6 7.9 5.5 51 4.8 WNW 35 54 19 29 1020.9 1020.9 0.0
28/09:30am 15.1 6.5 4.8 50 4.8 WNW 39 54 21 29 1020.8 1020.8 0.0
28/09:04am 14.9 6.6 5.9 55 4.3 WNW 39 57 21 31 1020.9 1020.9 0.0
28/09:00am 14.5 5.3 5.6 55 4.2 WNW 43 57 23 31 1020.6 1020.6 0.0
28/08:30am 13.4 5.0 5.7 59 3.6 WNW 39 52 21 28 1020.5 1020.5 0.0
28/08:00am 12.6 5.0 5.7 63 3.2 WNW 35 50 19 27 1020.5 1020.5 0.0
28/07:30am 12.0 5.7 5.5 64 3.0 WNW 28 35 15 19 1020.2 1020.2 0.0
28/07:00am 11.2 4.4 5.3 67 2.7 WNW 30 39 16 21 1019.9 1019.9 0.0
28/06:30am 10.3 4.7 5.2 70 2.3 WNW 24 35 13 19 1019.7 1019.7 0.0
28/06:00am 9.2 4.5 5.2 76 1.8 WNW 19 20 10 11 1019.4 1019.4 0.0
28/05:30am 9.4 5.1 5.4 76 1.8 WNW 17 24 9 13 1019.2 1019.2 0.0
28/05:00am 9.9 5.3 5.5 74 2.0 WNW 19 26 10 14 1019.2 1019.2 0.0
28/04:30am 10.2 5.4 5.8 74 2.0 WNW 20 26 11 14 1018.9 1018.9 0.0
28/04:00am 10.5 4.7 6.2 75 2.0 WNW 26 32 14 17 1018.6 1018.6 0.0
28/03:30am 10.8 5.7 6.1 73 2.2 WNW 22 32 12 17 1018.5 1018.5 0.0
28/03:00am 10.5 5.9 6.4 76 1.9 NW 20 28 11 15 1018.7 1018.7 0.0
28/02:30am 10.6 5.7 6.8 77 1.8 NW 22 28 12 15 1019.0 1019.0 0.0
28/02:00am 11.2 5.2 7.2 76 1.9 NW 28 32 15 17 1019.1 1019.1 0.0
28/01:30am 11.4 7.0 7.4 76 1.9 WNW 20 30 11 16 1019.3 1019.3 0.0
28/01:00am 11.9 6.7 7.3 73 2.2 WNW 24 35 13 19 1019.4 1019.4 0.0
28/12:30am 11.8 6.7 7.7 76 2.0 WNW 24 33 13 18 1019.2 1019.2 0.0
28/12:00am 11.4 6.8 8.3 81 1.5 WNW 22 30 12 16 1019.1 1019.1 0.0
 
Date/Time
EST
Temp
°C
App
Temp
°C
Dew
Point
Rel
Hum
%
Delta-T
°C
Wind Press
QNH
hPa
Press
MSL
hPa
Rain
since 9 am
mm
Dir
 
Spd
km/h
Gust
km/h
Spd
kts
Gust
kts
27/11:30pm 10.5 7.0 8.7 89 0.9 WNW 17 19 9 10 1019.2 1019.2 0.0
27/11:00pm 11.5 8.1 9.3 86 1.1 NW 17 20 9 11 1019.2 1019.2 0.0
27/10:30pm 11.9 8.3 9.7 86 1.1 NW 19 24 10 13 1019.3 1019.3 0.0
27/10:00pm 11.3 8.5 8.4 82 1.4 NW 13 17 7 9 1019.6 1019.6 0.0
27/09:30pm 10.7 7.8 8.0 83 1.3 W 13 15 7 8 1019.8 1019.8 0.0
27/09:00pm 10.3 7.2 7.4 82 1.4 WSW 13 19 7 10 1019.9 1019.9 0.0
27/08:30pm 10.8 9.0 7.2 78 1.7 N 6 9 3 5 1019.6 1019.6 0.0
27/08:00pm 13.0 10.6 7.0 67 2.9 NNE 9 11 5 6 1019.2 1019.2 0.0
27/07:30pm 14.2 11.3 6.5 60 3.7 N 11 15 6 8 1019.0 1019.0 0.0
27/07:00pm 14.4 10.6 6.0 57 4.0 NW 15 26 8 14 1018.6 1018.6 0.0
27/06:30pm 13.9 11.0 6.4 60 3.6 NNW 11 15 6 8 1018.5 1018.5 0.0
27/06:00pm 14.8 11.5 6.5 57 4.0 N 13 19 7 10 1018.4 1018.4 0.0
27/05:30pm 15.9 11.8 6.2 52 4.7 NNW 17 28 9 15 1018.1 1018.1 0.0
27/05:00pm 16.5 12.8 6.5 51 4.9 NNW 15 19 8 10 1017.6 1017.6 0.0
27/04:30pm 16.5 12.1 7.2 54 4.6 NNW 20 30 11 16 1017.4 1017.4 0.0
27/04:00pm 16.7 12.5 7.5 54 4.6 NNW 19 26 10 14 1017.3 1017.3 0.0
27/03:30pm 17.3 11.0 7.3 52 5.0 NW 30 41 16 22 1017.4 1017.4 0.0
27/03:00pm 17.7 11.4 7.6 51 5.1 WNW 30 39 16 21 1017.5 1017.5 0.0
27/02:49pm 17.9 11.5 7.1 49 5.4 WNW 30 50 16 27 1017.6 1017.6 0.0
27/02:30pm 17.2 10.5 7.4 52 4.9 WNW 32 41 17 22 1017.7 1017.7 0.0
27/02:20pm 17.1 10.7 8.5 57 4.4 WNW 32 50 17 27 1017.7 1017.7 0.0
27/02:00pm 16.4 9.4 8.5 59 4.0 NW 35 50 19 27 1017.8 1017.8 0.0
27/01:48pm 16.9 10.2 8.0 55 4.5 NW 33 52 18 28 1017.7 1017.7 0.0
27/01:30pm 16.1 9.9 9.5 65 3.4 NW 32 44 17 24 1017.9 1017.9 0.0
27/01:00pm 16.2 10.5 8.5 60 3.9 WNW 28 39 15 21 1018.3 1018.3 0.0
27/12:30pm 17.0 10.6 8.6 57 4.3 WNW 32 43 17 23 1018.4 1018.4 0.0
27/12:14pm 17.3 11.8 9.0 58 4.3 WNW 28 46 15 25 1018.5 1018.5 0.0
27/12:00pm 17.7 11.2 8.8 56 4.6 NW 33 44 18 24 1018.8 1018.8 0.0
27/11:30am 17.7 11.2 9.0 56 4.5 WNW 33 44 18 24 1018.9 1018.9 0.0
27/11:00am 17.5 10.7 9.2 58 4.3 WNW 35 46 19 25 1019.2 1019.2 0.0
27/10:30am 17.1 11.3 9.4 60 4.0 WNW 30 37 16 20 1019.8 1019.8 0.0
27/10:00am 17.7 12.3 9.5 58 4.3 WNW 28 39 15 21 1019.8 1019.8 0.0
27/09:30am 16.8 12.2 9.7 63 3.7 WNW 24 35 13 19 1020.4 1020.4 0.0
27/09:00am 14.9 11.6 9.7 71 2.7 NW 17 20 9 11 1020.5 1020.5 0.0
27/08:30am 14.6 11.2 9.3 70 2.7 WNW 17 26 9 14 1020.4 1020.4 0.0
27/08:00am 14.1 9.4 9.2 72 2.5 WNW 24 33 13 18 1020.7 1020.7 0.0
27/07:30am 14.4 10.4 9.1 70 2.7 NW 20 28 11 15 1020.6 1020.6 0.0
27/07:00am 13.2 10.2 9.2 77 2.0 WNW 15 22 8 12 1020.5 1020.5 0.0
27/06:30am 12.6 9.2 9.2 80 1.7 WNW 17 24 9 13 1020.3 1020.3 0.0
27/06:00am 13.1 10.5 9.3 78 1.9 WNW 13 19 7 10 1019.8 1019.8 0.0
27/05:30am 13.5 9.8 9.6 77 2.0 WNW 19 22 10 12 1019.9 1019.9 0.0
27/05:00am 13.2 10.3 9.7 79 1.8 WNW 15 19 8 10 1019.9 1019.9 0.0
27/04:30am 12.7 10.1 9.5 81 1.6 WNW 13 17 7 9 1019.7 1019.7 0.0
27/04:00am 13.0 10.8 9.4 79 1.8 W 11 15 6 8 1019.3 1019.3 0.0
27/03:30am 14.2 10.5 9.5 73 2.4 WNW 19 24 10 13 1019.4 1019.4 0.0
27/03:00am 14.3 11.4 9.6 73 2.4 W 15 19 8 10 1019.5 1019.5 0.0
27/02:30am 14.3 11.0 9.6 73 2.4 WNW 17 19 9 10 1019.4 1019.4 0.0
27/02:00am 13.2 10.8 9.9 80 1.7 NW 13 15 7 8 1019.3 1019.3 0.0
27/01:30am 13.7 11.9 9.6 76 2.1 W 9 13 5 7 1019.3 1019.3 0.0
27/01:00am 14.3 11.8 9.6 73 2.4 WNW 13 17 7 9 1020.0 1020.0 0.0
27/12:30am 14.8 11.5 9.5 70 2.7 WNW 17 20 9 11 1020.3 1020.3 0.0
27/12:00am 15.4 12.1 9.6 68 3.0 WNW 17 22 9 12 1020.5 1020.5 0.0
 
Date/Time
EST
Temp
°C
App
Temp
°C
Dew
Point
Rel
Hum
%
Delta-T
°C
Wind Press
QNH
hPa
Press
MSL
hPa
Rain
since 9 am
mm
Dir
 
Spd
km/h
Gust
km/h
Spd
kts
Gust
kts
26/11:30pm 15.3 13.3 10.1 71 2.7 WNW 11 15 6 8 1020.6 1020.6 0.0
26/11:00pm 15.2 12.8 10.2 72 2.6 WNW 13 17 7 9 1020.7 1020.7 0.0
26/10:30pm 15.6 12.9 10.3 70 2.8 W 15 20 8 11 1020.9 1020.9 0.0
26/10:00pm 15.7 13.4 10.4 71 2.8 W 13 19 7 10 1021.3 1021.3 0.0
26/09:30pm 15.8 13.5 10.5 71 2.8 W 13 15 7 8 1021.0 1021.0 0.0
26/09:00pm 15.5 14.1 10.8 73 2.5 WSW 9 11 5 6 1021.0 1021.0 0.0
26/08:30pm 15.4 14.1 11.3 76 2.2 W 9 11 5 6 1021.0 1021.0 0.0
26/08:00pm 15.4 14.9 11.9 79 1.9 SW 6 7 3 4 1020.7 1020.7 0.0
26/07:30pm 15.9 15.0 11.2 73 2.5 WSW 7 9 4 5 1020.5 1020.5 0.0
26/07:00pm 15.7 14.2 12.0 78 2.0 WNW 11 13 6 7 1020.3 1020.3 0.0
26/06:30pm 16.0 15.7 12.7 81 1.8 WNW 6 7 3 4 1020.0 1020.0 0.0
26/06:00pm 16.1 15.1 12.3 78 2.1 SW 9 11 5 6 1019.5 1019.5 0.0
26/05:30pm 16.6 15.5 12.0 74 2.5 S 9 11 5 6 1019.3 1019.3 0.0
26/05:00pm 17.4 16.1 11.1 66 3.4 SW 9 9 5 5 1019.2 1019.2 0.0
26/04:30pm 17.9 16.1 10.8 63 3.8 W 11 13 6 7 1018.6 1018.6 0.0
26/04:00pm 18.0 15.2 10.1 60 4.2 W 15 26 8 14 1018.0 1018.0 0.0
26/03:30pm 17.9 14.6 9.7 58 4.3 WNW 17 20 9 11 1018.0 1018.0 0.0
26/03:00pm 17.9 13.6 9.5 58 4.4 WNW 22 32 12 17 1017.9 1017.9 0.0
26/02:30pm 18.8 13.7 9.3 54 5.0 WNW 26 33 14 18 1018.0 1018.0 0.0
26/02:00pm 18.0 11.8 9.2 56 4.6 NW 32 41 17 22 1018.2 1018.2 0.0
26/01:30pm 18.2 13.4 8.7 54 4.9 WNW 24 33 13 18 1018.1 1018.1 0.0
26/01:00pm 19.1 13.6 9.0 52 5.3 NW 28 39 15 21 1018.2 1018.2 0.0
26/12:30pm 17.9 12.4 9.0 56 4.6 WNW 28 41 15 22 1018.5 1018.5 0.0
26/12:00pm 18.0 12.0 8.7 54 4.8 NW 30 41 16 22 1018.7 1018.7 0.0
26/11:30am 17.0 10.9 8.4 57 4.4 NW 30 44 16 24 1019.1 1019.1 0.0
26/11:00am 16.7 10.2 8.2 57 4.3 NW 32 48 17 26 1019.3 1019.3 0.0
26/10:46am 16.2 9.6 7.8 57 4.2 WNW 32 50 17 27 1019.4 1019.4 0.0
26/10:30am 16.1 9.3 7.9 58 4.1 NW 33 48 18 26 1019.5 1019.5 0.0
26/10:00am 15.7 8.9 7.9 59 3.9 NW 33 43 18 23 1019.4 1019.4 0.0
26/09:30am 15.2 8.4 7.5 60 3.8 NW 33 43 18 23 1019.3 1019.3 0.0
26/09:00am 14.9 8.2 7.4 61 3.7 NW 32 43 17 23 1019.3 1019.3 0.0
26/08:38am 14.9 9.0 7.4 61 3.7 NW 28 48 15 26 1019.2 1019.2 0.0
26/08:30am 14.9 8.6 7.4 61 3.7 NW 30 37 16 20 1019.2 1019.2 0.0
26/08:00am 15.2 9.3 7.3 59 3.9 NW 28 37 15 20 1018.7 1018.7 0.0
26/07:30am 14.5 7.8 7.4 62 3.5 NW 32 41 17 22 1018.2 1018.2 0.0
26/07:00am 14.3 8.0 7.6 64 3.3 NW 30 39 16 21 1018.2 1018.2 0.0
26/06:30am 14.2 9.1 7.5 64 3.3 NW 24 39 13 21 1017.8 1017.8 0.0
26/06:00am 13.9 9.2 7.6 66 3.1 NW 22 30 12 16 1017.5 1017.5 0.0
26/05:30am 14.0 7.7 7.5 65 3.2 NNW 30 37 16 20 1017.0 1017.0 0.0
26/05:00am 13.9 8.0 7.6 66 3.1 NW 28 35 15 19 1017.0 1017.0 0.0
26/04:30am 14.0 9.3 7.7 66 3.1 NW 22 30 12 16 1016.8 1016.8 0.0
26/04:00am 13.6 8.1 7.7 67 2.9 NNW 26 32 14 17 1016.4 1016.4 0.0
26/03:30am 13.5 9.4 7.8 68 2.8 NNW 19 28 10 15 1016.6 1016.6 0.0
26/03:00am 13.6 9.5 7.7 67 2.9 NNW 19 30 10 16 1016.9 1016.9 0.0
26/02:30am 13.2 9.5 7.9 70 2.6 NNW 17 24 9 13 1017.1 1017.1 0.0
26/02:00am 13.3 9.2 8.0 70 2.6 NNW 19 28 10 15 1017.2 1017.2 0.0
26/01:30am 13.6 8.6 8.2 70 2.7 NNW 24 37 13 20 1017.3 1017.3 0.0
26/01:00am 13.8 7.3 8.2 69 2.8 NW 32 46 17 25 1017.2 1017.2 0.0
26/12:30am 13.9 7.2 8.3 69 2.8 NW 33 48 18 26 1017.4 1017.4 0.0
26/12:13am 13.9 7.4 8.3 69 2.8 NW 32 50 17 27 1017.4 1017.4 0.0
26/12:00am 13.9 7.4 8.3 69 2.8 NW 32 44 17 24 1017.3 1017.3 0.0
 
Date/Time
EST
Temp
°C
App
Temp
°C
Dew
Point
Rel
Hum
%
Delta-T
°C
Wind Press
QNH
hPa
Press
MSL
hPa
Rain
since 9 am
mm
Dir
 
Spd
km/h
Gust
km/h
Spd
kts
Gust
kts
25/11:30pm 13.6 9.1 8.4 71 2.6 NW 22 33 12 18 1017.2 1017.2 0.0
25/11:00pm 14.1 8.4 8.3 68 2.9 NW 28 35 15 19 1017.3 1017.3 0.0
25/10:30pm 14.1 9.9 8.3 68 2.9 NW 20 28 11 15 1017.6 1017.6 0.0
25/10:00pm 14.8 10.2 8.0 64 3.4 NW 22 35 12 19 1017.4 1017.4 0.0
25/09:30pm 15.0 10.0 8.2 64 3.4 NNW 24 39 13 21 1017.2 1017.2 0.0
25/09:00pm 14.8 10.7 8.7 67 3.1 NNW 20 28 11 15 1017.2 1017.2 0.0
25/08:30pm 15.4 9.7 8.5 63 3.5 NNW 28 39 15 21 1017.2 1017.2 0.0
25/08:01pm 15.6 10.0 8.7 63 3.5 NW 28 46 15 25 1017.0 1017.0 0.0
25/08:00pm 15.7 10.1 8.6 62 3.6 NW 28 39 15 21 1017.0 1017.0 0.0
25/07:30pm 15.6 10.0 8.7 63 3.5 NW 28 41 15 22 1016.8 1016.8 0.0
25/07:00pm 15.9 10.6 8.4 61 3.8 NW 26 33 14 18 1016.8 1016.8 0.0
25/06:30pm 15.9 12.3 8.4 61 3.8 NW 17 26 9 14 1016.6 1016.6 0.0
25/06:00pm 16.4 11.8 8.3 58 4.1 NW 22 30 12 16 1016.3 1016.3 0.0

Other Formats:

Comma delimited format used in spreadsheet applications
http://www.bom.gov.au/fwo/IDN60801/IDN60801.94776.axf

JavaScript Object Notation format (JSON) in row-major order
http://www.bom.gov.au/fwo/IDN60801/IDN60801.94776.json